createdAt,value
2019-01-13T00:01:21.093Z,10.23
2019-01-13T00:03:50.967Z,10.00
2019-01-13T00:06:25.521Z,8.15
2019-01-13T00:08:55.063Z,12.63
2019-01-13T00:11:24.639Z,7.27
2019-01-13T00:13:54.147Z,17.35
2019-01-13T00:16:25.144Z,14.80
2019-01-13T00:18:54.679Z,9.75
2019-01-13T00:21:24.165Z,6.93
2019-01-13T00:23:53.981Z,13.47
2019-01-13T00:26:23.985Z,17.23
2019-01-13T00:28:53.518Z,11.10
2019-01-13T00:31:23.034Z,8.80
2019-01-13T00:33:52.807Z,7.60
2019-01-13T00:36:22.312Z,15.20
2019-01-13T00:38:51.845Z,12.40
2019-01-13T00:41:21.623Z,13.90
2019-01-13T00:43:51.438Z,8.43
2019-01-13T00:46:21.508Z,17.40
2019-01-13T00:48:51.115Z,11.33
2019-01-13T00:51:20.665Z,10.47
2019-01-13T00:53:50.472Z,9.03
2019-01-13T00:56:20.368Z,13.77
2019-01-13T00:58:50.190Z,8.90
2019-01-13T01:01:19.788Z,11.73
2019-01-13T01:03:49.625Z,10.93
2019-01-13T01:06:19.283Z,16.33
2019-01-13T01:08:48.822Z,8.60
2019-01-13T01:11:19.873Z,6.87
2019-01-13T01:13:49.444Z,8.43
2019-01-13T01:16:19.153Z,6.10
2019-01-13T01:18:49.016Z,10.58
2019-01-13T01:21:18.514Z,4.80
2019-01-13T01:23:48.274Z,10.25
2019-01-13T01:26:17.767Z,12.87
2019-01-13T01:28:47.553Z,9.33
2019-01-13T01:31:17.340Z,13.17
2019-01-13T01:33:46.825Z,10.25
2019-01-13T01:36:16.579Z,5.83
2019-01-13T01:38:46.379Z,5.90
2019-01-13T01:41:15.827Z,10.03
2019-01-13T01:43:45.325Z,8.35
2019-01-13T01:46:14.805Z,8.97
2019-01-13T01:48:44.380Z,6.17
2019-01-13T01:51:13.852Z,13.77
2019-01-13T01:53:43.372Z,9.30
2019-01-13T01:56:12.845Z,5.00
2019-01-13T01:58:42.388Z,7.10
2019-01-13T02:01:11.829Z,6.67
2019-01-13T02:03:42.363Z,9.07
2019-01-13T02:06:12.394Z,11.83
2019-01-13T02:08:42.388Z,11.53
2019-01-13T02:11:12.127Z,5.90
2019-01-13T02:13:41.950Z,5.55
2019-01-13T02:16:12.017Z,5.75
2019-01-13T02:18:42.275Z,6.07
2019-01-13T02:21:12.753Z,4.60
2019-01-13T02:23:43.387Z,5.70
2019-01-13T02:26:13.368Z,3.67
2019-01-13T02:28:43.457Z,7.20
2019-01-13T02:31:13.046Z,7.93
2019-01-13T02:33:43.122Z,7.83
2019-01-13T02:36:13.032Z,6.80
2019-01-13T02:38:42.815Z,8.50
2019-01-13T02:41:12.387Z,8.53
2019-01-13T02:43:42.666Z,6.80
2019-01-13T02:46:12.487Z,13.73
2019-01-13T02:48:42.519Z,10.48
2019-01-13T02:51:12.593Z,13.13
2019-01-13T02:53:42.901Z,10.43
2019-01-13T02:56:13.016Z,7.80
2019-01-13T02:58:43.010Z,11.25
2019-01-13T03:01:12.805Z,10.88
2019-01-13T03:03:42.787Z,11.47
2019-01-13T03:06:13.051Z,12.18
2019-01-13T03:08:42.920Z,10.63
2019-01-13T03:11:13.151Z,12.58
2019-01-13T03:13:43.040Z,7.12
2019-01-13T03:16:12.949Z,18.15
2019-01-13T03:18:43.003Z,12.45
2019-01-13T03:21:13.349Z,6.40
2019-01-13T03:23:43.117Z,12.40
2019-01-13T03:26:13.401Z,10.30
2019-01-13T03:28:43.984Z,16.90
2019-01-13T03:31:13.735Z,11.03
2019-01-13T03:33:43.294Z,5.77
2019-01-13T03:36:13.494Z,10.00
2019-01-13T03:38:43.034Z,9.53
2019-01-13T03:41:12.666Z,10.70
2019-01-13T03:43:42.257Z,16.67
2019-01-13T03:46:12.124Z,15.97
2019-01-13T03:48:42.841Z,10.23
2019-01-13T03:51:12.351Z,11.10
2019-01-13T03:53:41.897Z,15.37
2019-01-13T03:56:11.424Z,11.88
2019-01-13T03:58:41.189Z,14.77
2019-01-13T04:01:18.381Z,10.30
2019-01-13T04:03:42.755Z,10.03
2019-01-13T04:06:12.246Z,15.17
2019-01-13T04:08:42.096Z,14.97
2019-01-13T04:11:11.902Z,11.33
2019-01-13T04:13:41.411Z,15.17
2019-01-13T04:16:10.981Z,11.87
2019-01-13T04:18:40.775Z,13.93
2019-01-13T04:21:10.673Z,7.37
2019-01-13T04:23:40.176Z,11.43
2019-01-13T04:26:09.724Z,14.97
2019-01-13T04:28:40.074Z,13.07
2019-01-13T04:31:09.574Z,17.13
2019-01-13T04:33:39.362Z,13.48
2019-01-13T04:36:08.906Z,14.87
2019-01-13T04:38:38.865Z,10.83
2019-01-13T04:41:08.389Z,12.90
2019-01-13T04:43:38.223Z,9.70
2019-01-13T04:46:08.122Z,10.33
2019-01-13T04:48:38.144Z,6.50
2019-01-13T04:51:07.650Z,8.50
2019-01-13T04:53:37.180Z,8.63
2019-01-13T04:56:06.969Z,15.03
2019-01-13T04:58:36.474Z,10.98
2019-01-13T05:01:06.043Z,11.23
2019-01-13T05:03:35.628Z,7.42
2019-01-13T05:06:05.306Z,5.97
2019-01-13T05:08:35.069Z,9.27
2019-01-13T05:11:04.906Z,4.45
2019-01-13T05:13:34.490Z,4.83
2019-01-13T05:16:04.366Z,10.27
2019-01-13T05:18:34.248Z,3.97
2019-01-13T05:21:03.746Z,4.13
2019-01-13T05:23:33.543Z,4.85
2019-01-13T05:26:03.112Z,17.48
2019-01-13T05:28:33.829Z,8.47
2019-01-13T05:31:03.330Z,8.97
2019-01-13T05:33:33.137Z,5.00
2019-01-13T05:36:03.071Z,7.57
2019-01-13T05:38:32.955Z,4.70
2019-01-13T05:41:02.737Z,10.97
2019-01-13T05:43:32.457Z,12.70
2019-01-13T05:46:01.995Z,9.65
2019-01-13T05:48:31.551Z,4.87
2019-01-13T05:51:01.301Z,10.80
2019-01-13T05:53:31.078Z,17.73
2019-01-13T05:56:01.468Z,7.95
2019-01-13T05:58:30.960Z,5.53
2019-01-13T06:01:00.551Z,15.90
2019-01-13T06:03:30.017Z,11.80
2019-01-13T06:06:00.205Z,11.03
2019-01-13T06:08:29.990Z,13.08
2019-01-13T06:10:59.472Z,5.45
2019-01-13T06:13:29.572Z,5.03
2019-01-13T06:15:59.361Z,7.47
2019-01-13T06:18:29.110Z,8.87
2019-01-13T06:20:58.940Z,8.70
2019-01-13T06:23:28.446Z,7.73
2019-01-13T06:25:58.281Z,6.47
2019-01-13T06:28:28.239Z,3.85
2019-01-13T06:30:57.734Z,5.53
2019-01-13T06:33:27.505Z,4.90
2019-01-13T06:35:57.285Z,5.87
2019-01-13T06:38:26.768Z,8.37
2019-01-13T06:40:56.552Z,9.60
2019-01-13T06:43:26.301Z,6.60
2019-01-13T06:45:55.868Z,9.83
2019-01-13T06:48:25.362Z,6.57
2019-01-13T06:50:54.858Z,11.53
2019-01-13T06:53:25.054Z,10.23
2019-01-13T06:55:55.153Z,3.50
2019-01-13T06:58:25.636Z,10.33
2019-01-13T07:00:55.111Z,6.80
2019-01-13T07:03:24.674Z,4.12
2019-01-13T07:05:54.504Z,7.33
2019-01-13T07:08:24.117Z,5.77
2019-01-13T07:10:53.919Z,8.93
2019-01-13T07:13:23.814Z,8.35
2019-01-13T07:15:53.660Z,10.25
2019-01-13T07:18:23.726Z,12.67
2019-01-13T07:20:53.769Z,10.83
2019-01-13T07:23:23.619Z,9.58
2019-01-13T07:25:53.599Z,11.03
2019-01-13T07:28:23.090Z,12.37
2019-01-13T07:30:52.645Z,8.30
2019-01-13T07:33:22.274Z,10.53
2019-01-13T07:35:51.785Z,12.67
2019-01-13T07:38:21.547Z,8.67
2019-01-13T07:40:51.382Z,14.10
2019-01-13T07:43:21.583Z,8.87
2019-01-13T07:45:51.130Z,10.13
2019-01-13T07:48:20.645Z,16.80
2019-01-13T07:50:50.228Z,9.77
2019-01-13T07:53:20.044Z,9.43
2019-01-13T07:55:49.911Z,13.10
2019-01-13T07:58:19.988Z,9.17
2019-01-13T08:00:50.320Z,16.15
2019-01-13T08:03:19.864Z,10.83
2019-01-13T08:05:52.946Z,9.88
2019-01-13T08:08:22.429Z,14.67
2019-01-13T08:10:52.056Z,11.00
2019-01-13T08:13:21.826Z,8.37
2019-01-13T08:15:51.378Z,7.57
2019-01-13T08:18:21.407Z,11.70
2019-01-13T08:20:50.900Z,6.00
2019-01-13T08:23:20.671Z,11.03
2019-01-13T08:25:50.280Z,7.33
2019-01-13T08:28:20.349Z,6.22
2019-01-13T08:30:50.199Z,4.15
2019-01-13T08:33:20.236Z,3.37
2019-01-13T08:35:50.782Z,4.50
2019-01-13T08:38:20.348Z,2.83
2019-01-13T08:40:50.852Z,3.25
2019-01-13T08:43:20.514Z,3.23
2019-01-13T08:45:50.697Z,3.47
2019-01-13T08:48:20.479Z,3.80
2019-01-13T08:50:50.691Z,5.23
2019-01-13T08:53:20.717Z,4.42
2019-01-13T08:55:50.888Z,1.77
2019-01-13T08:58:20.790Z,0.87
2019-01-13T09:00:54.529Z,2.10
2019-01-13T09:03:24.053Z,1.17
2019-01-13T09:05:53.842Z,2.67
2019-01-13T09:08:23.604Z,1.47
2019-01-13T09:10:53.668Z,1.90
2019-01-13T09:13:23.374Z,0.63
2019-01-13T09:15:54.219Z,0.88
2019-01-13T09:18:24.112Z,2.43
2019-01-13T09:20:53.907Z,1.63
2019-01-13T09:23:23.695Z,0.87
2019-01-13T09:25:53.483Z,1.17
2019-01-13T09:28:23.075Z,0.77
2019-01-13T09:30:53.111Z,1.37
2019-01-13T09:33:22.986Z,1.30
2019-01-13T09:35:53.541Z,1.67
2019-01-13T09:38:23.052Z,1.07
2019-01-13T09:40:52.684Z,7.20
2019-01-13T09:43:22.489Z,0.60
2019-01-13T09:45:52.064Z,1.33
2019-01-13T09:48:22.300Z,2.13
2019-01-13T09:50:51.792Z,0.87
2019-01-13T09:53:21.919Z,0.78
2019-01-13T09:55:51.677Z,1.00
2019-01-13T09:58:22.012Z,1.17
2019-01-13T10:00:51.958Z,1.23
2019-01-13T10:03:21.813Z,1.50
2019-01-13T10:05:52.319Z,1.53
2019-01-13T10:08:22.110Z,1.17
2019-01-13T10:10:51.882Z,1.10
2019-01-13T10:13:22.579Z,1.60
2019-01-13T10:15:52.085Z,1.73
2019-01-13T10:18:22.126Z,1.60
2019-01-13T10:20:52.107Z,1.77
2019-01-13T10:23:22.119Z,2.13
2019-01-13T10:25:52.175Z,2.55
2019-01-13T10:28:22.356Z,2.08
2019-01-13T10:30:52.703Z,2.27
2019-01-13T10:33:22.266Z,2.47
2019-01-13T10:35:52.384Z,1.75
2019-01-13T10:38:22.750Z,1.07
2019-01-13T10:40:52.440Z,1.60
2019-01-13T10:43:22.465Z,1.15
2019-01-13T10:45:52.480Z,1.67
2019-01-13T10:48:22.499Z,2.92
2019-01-13T10:50:52.581Z,1.17
2019-01-13T10:53:22.630Z,1.98
2019-01-13T10:55:52.870Z,1.42
2019-01-13T10:58:22.916Z,1.17
2019-01-13T11:00:52.844Z,1.13
2019-01-13T11:03:23.049Z,1.63
2019-01-13T11:05:53.229Z,1.55
2019-01-13T11:08:23.445Z,1.17
2019-01-13T11:10:52.944Z,3.22
2019-01-13T11:13:23.275Z,1.35
2019-01-13T11:15:53.418Z,1.57
2019-01-13T11:18:23.100Z,2.15
2019-01-13T11:20:53.037Z,1.60
2019-01-13T11:23:23.153Z,1.52
2019-01-13T11:25:53.131Z,1.70
2019-01-13T11:28:23.274Z,1.00
2019-01-13T11:30:53.633Z,1.20
2019-01-13T11:33:23.580Z,1.03
2019-01-13T11:35:53.567Z,2.10
2019-01-13T11:38:23.715Z,1.47
2019-01-13T11:40:54.276Z,1.00
2019-01-13T11:43:23.800Z,1.40
2019-01-13T11:45:54.319Z,0.80
2019-01-13T11:48:24.078Z,0.97
2019-01-13T11:50:53.647Z,0.70
2019-01-13T11:53:23.680Z,0.80
2019-01-13T11:55:53.966Z,0.70
2019-01-13T11:58:23.741Z,0.80
2019-01-13T12:00:54.016Z,0.80
2019-01-13T12:03:24.247Z,2.00
2019-01-13T12:05:54.243Z,0.60
2019-01-13T12:08:24.660Z,0.45
2019-01-13T12:10:54.510Z,2.93
2019-01-13T12:13:24.425Z,2.33
2019-01-13T12:15:55.190Z,0.50
2019-01-13T12:18:24.713Z,0.67
2019-01-13T12:20:54.579Z,0.95
2019-01-13T12:23:24.335Z,0.40
2019-01-13T12:25:55.150Z,0.30
2019-01-13T12:28:24.716Z,0.57
2019-01-13T12:30:54.760Z,2.35
2019-01-13T12:33:24.942Z,0.50
2019-01-13T12:35:54.781Z,0.30
2019-01-13T12:38:24.936Z,0.40
2019-01-13T12:40:54.655Z,0.40
2019-01-13T12:43:24.858Z,0.30
2019-01-13T12:45:54.801Z,0.72
2019-01-13T12:48:25.564Z,0.63
2019-01-13T12:50:55.357Z,0.70
2019-01-13T12:53:25.330Z,0.30
2019-01-13T12:55:55.224Z,1.32
2019-01-13T12:58:25.241Z,0.40
2019-01-13T13:00:55.006Z,0.37
2019-01-13T13:03:31.570Z,0.30
2019-01-13T13:05:57.430Z,0.50
2019-01-13T13:08:27.885Z,1.73
2019-01-13T13:10:57.842Z,0.43
2019-01-13T13:13:27.332Z,0.40
2019-01-13T13:15:57.179Z,0.83
2019-01-13T13:18:26.690Z,0.73
2019-01-13T13:20:56.454Z,0.50
2019-01-13T13:23:26.255Z,0.30
2019-01-13T13:25:56.037Z,0.83
2019-01-13T13:28:25.941Z,0.57
2019-01-13T13:30:55.751Z,0.40
2019-01-13T13:33:25.892Z,0.30
2019-01-13T13:35:55.621Z,0.97
2019-01-13T13:38:25.689Z,0.37
2019-01-13T13:40:55.928Z,1.63
2019-01-13T13:43:42.917Z,0.37
2019-01-13T13:46:12.882Z,0.40
2019-01-13T13:48:42.699Z,0.50
2019-01-13T13:51:12.215Z,0.43
2019-01-13T13:53:41.774Z,0.40
2019-01-13T13:56:11.328Z,0.30
2019-01-13T13:58:40.857Z,0.83
2019-01-13T14:01:10.822Z,4.35
2019-01-13T14:03:45.683Z,1.00
2019-01-13T14:06:11.870Z,0.70
2019-01-13T14:08:41.383Z,0.37
2019-01-13T14:11:10.884Z,0.27
2019-01-13T14:13:40.552Z,0.43
2019-01-13T14:16:10.064Z,5.17
2019-01-13T14:18:39.997Z,1.90
2019-01-13T14:21:09.720Z,2.23
2019-01-13T14:23:39.588Z,0.20
2019-01-13T14:26:09.117Z,0.40
2019-01-13T14:28:38.678Z,1.50
2019-01-13T14:31:08.227Z,3.93
2019-01-13T14:33:37.776Z,0.75
2019-01-13T14:36:07.278Z,0.40
2019-01-13T14:38:36.851Z,0.70
2019-01-13T14:41:06.676Z,1.33
2019-01-13T14:43:36.169Z,0.53
2019-01-13T14:46:05.933Z,0.53
2019-01-13T14:48:35.450Z,0.50
2019-01-13T14:51:06.199Z,0.30
2019-01-13T14:53:36.646Z,1.60
2019-01-13T14:56:06.244Z,1.50
2019-01-13T14:58:35.776Z,0.63
2019-01-13T15:01:05.595Z,0.40
2019-01-13T15:03:35.108Z,1.97
2019-01-13T15:06:05.721Z,0.23
2019-01-13T15:08:36.666Z,0.40
2019-01-13T15:11:06.180Z,0.40
2019-01-13T15:13:35.763Z,1.10
2019-01-13T15:16:05.460Z,2.20
2019-01-13T15:18:35.430Z,0.77
2019-01-13T15:21:04.974Z,1.17
2019-01-13T15:23:34.735Z,0.50
2019-01-13T15:26:04.629Z,1.15
2019-01-13T15:28:35.061Z,0.30
2019-01-13T15:31:04.725Z,1.82
2019-01-13T15:33:34.674Z,1.15
2019-01-13T15:36:04.422Z,0.40
2019-01-13T15:38:34.464Z,0.30
2019-01-13T15:41:04.383Z,0.40
2019-01-13T15:43:33.985Z,0.93
2019-01-13T15:46:03.501Z,0.87
2019-01-13T15:48:33.320Z,1.50
2019-01-13T15:51:03.611Z,0.30
2019-01-13T15:53:33.460Z,0.20
2019-01-13T15:56:03.067Z,0.30
2019-01-13T15:58:33.499Z,0.60
2019-01-13T16:01:03.396Z,2.37
2019-01-13T16:03:32.949Z,2.77
2019-01-13T16:06:03.239Z,0.40
2019-01-13T16:08:32.763Z,0.82
2019-01-13T16:11:02.271Z,0.30
2019-01-13T16:13:32.008Z,0.50
2019-01-13T16:16:01.787Z,1.47
2019-01-13T16:18:31.730Z,0.40
2019-01-13T16:21:01.791Z,3.67
2019-01-13T16:23:31.809Z,0.23
2019-01-13T16:26:01.877Z,0.20
2019-01-13T16:28:31.532Z,1.47
2019-01-13T16:31:01.108Z,0.37
2019-01-13T16:33:31.177Z,0.42
2019-01-13T16:36:00.937Z,0.20
2019-01-13T16:38:30.503Z,0.93
2019-01-13T16:41:00.485Z,2.30
2019-01-13T16:43:29.987Z,0.60
2019-01-13T16:45:59.469Z,0.87
2019-01-13T16:48:29.375Z,0.73
2019-01-13T16:50:59.515Z,1.45
2019-01-13T16:53:29.529Z,0.97
2019-01-13T16:55:59.524Z,2.80
2019-01-13T16:58:29.880Z,1.67
2019-01-13T17:00:59.727Z,2.47
2019-01-13T17:03:29.328Z,1.65
2019-01-13T17:05:59.461Z,1.47
2019-01-13T17:08:29.772Z,6.35
2019-01-13T17:10:59.305Z,3.00
2019-01-13T17:13:29.421Z,3.47
2019-01-13T17:16:00.023Z,3.70
2019-01-13T17:18:29.849Z,4.17
2019-01-13T17:20:59.818Z,4.62
2019-01-13T17:23:29.827Z,2.00
2019-01-13T17:25:59.612Z,1.30
2019-01-13T17:28:29.944Z,3.12
2019-01-13T17:30:59.710Z,2.92
2019-01-13T17:33:30.334Z,1.98
2019-01-13T17:35:59.893Z,3.33
2019-01-13T17:38:29.803Z,2.30
2019-01-13T17:40:59.895Z,2.45
2019-01-13T17:43:30.529Z,1.90
2019-01-13T17:46:00.028Z,2.60
2019-01-13T17:48:30.104Z,2.67
2019-01-13T17:51:00.088Z,3.80
2019-01-13T17:53:30.279Z,1.85
2019-01-13T17:56:00.125Z,7.40
2019-01-13T17:58:30.483Z,1.10
2019-01-13T18:01:21.702Z,5.30
2019-01-13T18:03:51.283Z,8.17
2019-01-13T18:06:20.910Z,14.30
2019-01-13T18:08:51.378Z,6.47
2019-01-13T18:11:20.908Z,12.13
2019-01-13T18:13:50.522Z,6.30
2019-01-13T18:16:20.283Z,10.07
2019-01-13T18:18:50.151Z,12.03
2019-01-13T18:21:19.641Z,10.93
2019-01-13T18:23:49.539Z,9.93
2019-01-13T18:26:19.040Z,6.13
2019-01-13T18:28:49.154Z,8.60
2019-01-13T18:31:18.918Z,7.62
2019-01-13T18:33:48.512Z,8.93
2019-01-13T18:36:18.396Z,9.93
2019-01-13T18:38:48.278Z,6.50
2019-01-13T18:41:18.054Z,7.78
2019-01-13T18:43:47.590Z,11.47
2019-01-13T18:46:17.064Z,8.30
2019-01-13T18:48:46.788Z,15.47
2019-01-13T18:51:16.310Z,11.93
2019-01-13T18:53:46.156Z,17.07
2019-01-13T18:56:16.302Z,8.20
2019-01-13T18:58:46.434Z,17.13
2019-01-13T19:01:16.323Z,8.13
2019-01-13T19:03:46.115Z,12.17
2019-01-13T19:06:15.711Z,13.05
2019-01-13T19:08:45.635Z,7.62
2019-01-13T19:11:28.107Z,10.55
2019-01-13T19:14:23.496Z,14.10
2019-01-13T19:17:05.878Z,5.97
2019-01-13T19:19:59.205Z,11.27
2019-01-13T19:22:30.730Z,8.57
2019-01-13T19:25:07.725Z,13.17
2019-01-13T19:27:37.484Z,10.73
2019-01-13T19:30:08.635Z,21.20
2019-01-13T19:32:38.659Z,10.07
2019-01-13T19:35:09.881Z,13.93
2019-01-13T19:37:39.885Z,10.35
2019-01-13T19:40:11.380Z,4.77
2019-01-13T19:42:40.889Z,12.67
2019-01-13T19:45:11.674Z,6.92
2019-01-13T19:47:42.355Z,8.83
2019-01-13T19:50:14.238Z,4.40
2019-01-13T19:52:43.837Z,8.77
2019-01-13T19:55:14.202Z,7.40
2019-01-13T19:57:43.985Z,7.55
2019-01-13T20:00:20.865Z,9.37
2019-01-13T20:02:50.914Z,12.17
2019-01-13T20:05:22.491Z,8.80
2019-01-13T20:07:52.123Z,6.70
2019-01-13T20:10:21.768Z,12.97
2019-01-13T20:12:51.624Z,11.13
2019-01-13T20:15:21.785Z,6.60
2019-01-13T20:17:51.536Z,12.90
2019-01-13T20:20:21.182Z,15.83
2019-01-13T20:22:50.745Z,8.50
2019-01-13T20:25:20.621Z,15.03
2019-01-13T20:27:50.545Z,9.75
2019-01-13T20:30:22.364Z,7.40
2019-01-13T20:32:52.135Z,7.73
2019-01-13T20:35:21.727Z,4.63
2019-01-13T20:37:51.621Z,7.30
2019-01-13T20:40:21.311Z,15.53
2019-01-13T20:42:51.455Z,16.23
2019-01-13T20:45:29.921Z,13.10
2019-01-13T20:47:59.588Z,16.17
2019-01-13T20:50:29.374Z,20.03
2019-01-13T20:52:58.990Z,18.07
2019-01-13T20:55:28.705Z,16.17
2019-01-13T20:57:58.847Z,16.73
2019-01-13T21:00:28.691Z,21.10
2019-01-13T21:02:58.220Z,15.83
2019-01-13T21:05:27.806Z,14.60
2019-01-13T21:07:57.339Z,19.47
2019-01-13T21:10:27.303Z,16.10
2019-01-13T21:12:56.939Z,26.57
2019-01-13T21:15:29.352Z,14.87
2019-01-13T21:17:58.939Z,22.27
2019-01-13T21:20:29.880Z,12.77
2019-01-13T21:22:59.551Z,13.03
2019-01-13T21:25:32.571Z,20.97
2019-01-13T21:28:02.936Z,19.00
2019-01-13T21:30:33.293Z,15.80
2019-01-13T21:33:03.050Z,15.20
2019-01-13T21:35:34.140Z,24.07
2019-01-13T21:38:05.153Z,12.37
2019-01-13T21:40:35.352Z,18.67
2019-01-13T21:43:05.909Z,18.80
2019-01-13T21:45:36.516Z,17.07
2019-01-13T21:48:07.586Z,13.07
2019-01-13T21:50:37.249Z,25.80
2019-01-13T21:53:07.082Z,26.47
2019-01-13T21:55:36.646Z,15.95
2019-01-13T21:58:06.845Z,16.37
2019-01-13T22:00:37.070Z,18.80
2019-01-13T22:03:06.926Z,16.20
2019-01-13T22:05:41.287Z,18.13
2019-01-13T22:08:08.697Z,12.07
2019-01-13T22:10:38.679Z,18.43
2019-01-13T22:13:08.208Z,19.30
2019-01-13T22:15:38.998Z,14.80
2019-01-13T22:18:09.490Z,16.10
2019-01-13T22:20:39.095Z,18.37
2019-01-13T22:23:08.877Z,19.87
2019-01-13T22:25:38.507Z,15.83
2019-01-13T22:28:08.005Z,25.10
2019-01-13T22:30:37.825Z,17.98
2019-01-13T22:33:07.606Z,11.07
2019-01-13T22:35:37.625Z,18.60
2019-01-13T22:38:08.692Z,16.47
2019-01-13T22:40:38.289Z,15.07
2019-01-13T22:43:07.941Z,13.53
2019-01-13T22:45:38.123Z,8.77
2019-01-13T22:48:07.727Z,20.23
2019-01-13T22:50:37.562Z,10.67
2019-01-13T22:53:07.223Z,13.67
2019-01-13T22:55:37.102Z,6.33
2019-01-13T22:58:07.066Z,8.73
2019-01-13T23:01:06.610Z,9.13
2019-01-13T23:03:37.730Z,14.03
2019-01-13T23:06:07.596Z,16.00
2019-01-13T23:08:37.579Z,14.00
2019-01-13T23:11:08.041Z,12.77
2019-01-13T23:13:37.679Z,14.38
2019-01-13T23:16:07.186Z,13.90
2019-01-13T23:18:37.086Z,16.83
2019-01-13T23:21:06.977Z,12.28
2019-01-13T23:23:36.960Z,9.10
2019-01-13T23:26:06.986Z,17.07
2019-01-13T23:28:37.040Z,12.13
2019-01-13T23:31:07.667Z,13.83
2019-01-13T23:33:37.270Z,16.00
2019-01-13T23:36:07.144Z,13.27
2019-01-13T23:38:37.456Z,17.85
2019-01-13T23:41:07.754Z,14.15
2019-01-13T23:43:38.071Z,10.00
2019-01-13T23:46:08.298Z,21.35
2019-01-13T23:48:37.839Z,21.43
2019-01-13T23:51:07.994Z,18.53
2019-01-13T23:53:37.990Z,8.78
2019-01-13T23:56:08.452Z,16.42
2019-01-13T23:58:39.030Z,18.77
